Time;durP1;ratioP1;P1;durP2;ratioP2;P2;SDS_P1;SDS_P2;PMS_P1;PMS_P2;Temp;Humidity;BMP_temperature;BMP_pressure;BME280_temperature;BME280_humidity;BME280_pressure;Samples;Min_cycle;Max_cycle;Signal;HPM_P1;HPM_P2
2022/09/22 00:01:04;;;;;;;;;;;;;;;6.63;100.00;99190.73;1723344;81;20923;-72
2022/09/22 00:03:35;;;;;;;11.20;6.40;;;;;;;6.60;100.00;99197.34;1723249;82;20075;-72
2022/09/22 00:06:21;;;;;;;13.78;7.05;;;;;;;6.55;100.00;99187.31;1723855;82;21006;-72
2022/09/22 00:08:54;;;;;;;10.80;6.97;;;;;;;6.51;100.00;99197.20;1722825;82;21058;-72
2022/09/22 00:11:34;;;;;;;12.00;7.25;;;;;;;6.52;100.00;99199.38;1728488;82;21525;-72
2022/09/22 00:14:21;;;;;;;20.45;8.53;;;;;;;6.50;100.00;99202.95;1726647;82;20880;-72
2022/09/22 00:16:56;;;;;;;8.88;6.05;;;;;;;6.47;100.00;99201.63;1730122;82;20935;-72
2022/09/22 00:19:31;;;;;;;10.38;6.95;;;;;;;6.43;100.00;99194.34;1721664;82;21519;-72
2022/09/22 00:22:04;;;;;;;12.20;7.08;;;;;;;6.40;100.00;99202.55;1726245;82;20889;-72
2022/09/22 00:24:36;;;;;;;10.23;6.62;;;;;;;6.37;100.00;99199.05;1727699;82;21572;-72
2022/09/22 00:27:09;;;;;;;10.23;6.45;;;;;;;6.38;100.00;99195.22;1717746;82;20988;-73
2022/09/22 00:29:38;;;;;;;12.73;7.08;;;;;;;6.36;100.00;99205.62;1731758;82;20996;-72
2022/09/22 00:32:12;;;;;;;9.28;6.75;;;;;;;6.34;100.00;99201.05;1695357;83;20945;-72
2022/09/22 00:34:43;;;;;;;12.23;7.20;;;;;;;6.32;100.00;99195.63;1720864;82;20971;-72
2022/09/22 00:37:13;;;;;;;13.28;6.67;;;;;;;6.30;100.00;99201.37;1723627;82;21156;-72
2022/09/22 00:39:45;;;;;;;10.00;7.33;;;;;;;6.28;100.00;99203.03;1709805;82;20988;-72
2022/09/22 00:42:18;;;;;;;9.00;6.53;;;;;;;6.29;100.00;99203.30;1738786;82;20889;-72
2022/09/22 00:44:52;;;;;;;14.28;6.97;;;;;;;6.31;100.00;99207.64;1723716;82;20934;-73
2022/09/22 00:47:35;;;;;;;14.07;8.00;;;;;;;6.28;100.00;99207.67;1715182;82;20852;-72
2022/09/22 00:50:21;;;;;;;12.45;7.72;;;;;;;6.25;100.00;99205.54;1700853;82;21050;-71
2022/09/22 00:52:59;;;;;;;14.53;8.23;;;;;;;6.22;100.00;99209.67;1719954;82;20981;-71
2022/09/22 00:55:50;;;;;;;11.12;7.75;;;;;;;6.21;100.00;99209.96;1733107;82;21446;-72
2022/09/22 00:58:26;;;;;;;12.70;7.53;;;;;;;6.24;100.00;99208.02;1708659;83;20994;-71
2022/09/22 01:00:55;;;;;;;13.53;7.22;;;;;;;6.20;100.00;99215.97;1697919;83;20948;-72
2022/09/22 01:03:28;;;;;;;12.45;7.10;;;;;;;6.18;100.00;99212.72;1718059;82;21232;-72
2022/09/22 01:06:05;;;;;;;11.68;7.53;;;;;;;6.18;100.00;99211.91;1712407;82;21533;-72
2022/09/22 01:08:33;;;;;;;17.00;8.90;;;;;;;6.20;100.00;99209.70;1713118;82;21533;-72
2022/09/22 01:11:05;;;;;;;11.50;7.65;;;;;;;6.21;100.00;99204.52;1711284;82;21546;-72
2022/09/22 01:14:25;;;;;;;12.37;7.90;;;;;;;6.25;100.00;99208.27;1713154;82;21451;-72
2022/09/22 01:17:21;;;;;;;10.58;7.37;;;;;;;6.27;100.00;99206.05;1724218;82;21924;-72
2022/09/22 01:20:42;;;;;;;12.60;8.00;;;;;;;6.25;100.00;99202.81;1722832;82;20978;-72
2022/09/22 01:23:41;;;;;;;11.08;8.25;;;;;;;6.22;100.00;99206.13;1689073;82;20863;-72
2022/09/22 01:26:30;;;;;;;11.35;8.43;;;;;;;6.16;100.00;99209.48;1735575;82;20935;-71
2022/09/22 01:29:38;;;;;;;19.20;8.28;;;;;;;6.14;100.00;99204.88;1717761;82;21627;-70
2022/09/22 01:32:15;;;;;;;13.25;8.83;;;;;;;6.13;100.00;99205.17;1722610;82;21268;-72
2022/09/22 01:34:57;;;;;;;14.30;7.72;;;;;;;6.12;100.00;99211.17;1726217;82;21578;-73
2022/09/22 01:37:48;;;;;;;10.08;7.00;;;;;;;6.12;100.00;99203.55;1718061;82;21536;-71
2022/09/22 01:40:45;;;;;;;23.90;8.65;;;;;;;6.09;100.00;99207.67;1694832;83;21564;-70
2022/09/22 01:43:43;;;;;;;18.25;10.63;;;;;;;6.11;100.00;99208.74;1700074;83;21600;-71
2022/09/22 01:46:23;;;;;;;15.50;8.80;;;;;;;6.12;100.00;99209.00;1735475;81;20986;-71
2022/09/22 01:48:54;;;;;;;38.70;8.80;;;;;;;6.11;100.00;99206.02;1740817;82;21428;-71
2022/09/22 01:51:30;;;;;;;11.25;7.67;;;;;;;6.11;100.00;99208.74;1723652;82;26494;-71
2022/09/22 01:54:05;;;;;;;48.63;9.55;;;;;;;6.10;100.00;99212.58;1729413;82;21470;-72
2022/09/22 01:56:34;;;;;;;10.08;7.03;;;;;;;6.08;100.00;99204.69;1735143;80;20933;-71
2022/09/22 01:59:05;;;;;;;24.98;9.93;;;;;;;6.09;100.00;99199.50;1753060;81;21598;-73
2022/09/22 02:01:46;;;;;;;16.52;7.72;;;;;;;6.08;100.00;99206.05;1720758;82;20939;-74
2022/09/22 02:04:27;;;;;;;16.25;8.20;;;;;;;6.07;100.00;99207.71;1743631;81;20943;-75
2022/09/22 02:07:04;;;;;;;14.28;8.38;;;;;;;6.05;100.00;99207.19;1729749;82;20907;-74
2022/09/22 02:09:40;;;;;;;12.20;7.58;;;;;;;6.05;100.00;99208.55;1739865;81;20935;-73
2022/09/22 02:12:10;;;;;;;11.68;8.10;;;;;;;6.03;100.00;99212.12;1744310;81;21545;-73
2022/09/22 02:14:42;;;;;;;32.63;7.87;;;;;;;6.05;100.00;99209.37;1740435;82;21004;-74
2022/09/22 02:17:12;;;;;;;14.50;7.87;;;;;;;6.06;100.00;99203.37;1740386;82;21085;-72
2022/09/22 02:19:46;;;;;;;11.35;7.60;;;;;;;6.03;100.00;99199.86;1741113;81;20987;-73
2022/09/22 02:22:16;;;;;;;9.20;6.17;;;;;;;5.98;100.00;99201.30;1741863;82;21010;-74
2022/09/22 02:24:46;;;;;;;8.83;6.37;;;;;;;5.95;100.00;99204.05;1738479;81;21284;-74
2022/09/22 02:27:25;;;;;;;13.08;7.95;;;;;;;5.92;100.00;99200.55;1742538;81;21160;-74
2022/09/22 02:30:11;;;;;;;9.68;7.85;;;;;;;5.94;100.00;99203.25;1721841;82;20966;-72
2022/09/22 02:32:45;;;;;;;12.25;7.53;;;;;;;5.96;100.00;99203.77;1742200;81;20911;-70
2022/09/22 02:35:16;;;;;;;10.85;6.60;;;;;;;5.94;100.00;99198.34;1783247;79;21026;-73
2022/09/22 02:38:14;;;;;;;15.30;6.78;;;;;;;5.89;100.00;99201.14;1793294;79;21162;-72
2022/09/22 02:40:48;;;;;;;10.32;7.67;;;;;;;5.85;100.00;99201.44;1773894;79;21410;-72
2022/09/22 02:43:48;;;;;;;10.82;6.45;;;;;;;5.82;100.00;99197.38;1776501;79;21187;-72
2022/09/22 02:46:22;;;;;;;10.90;7.53;;;;;;;5.81;100.00;99194.40;1741919;82;20931;-72
2022/09/22 02:48:58;;;;;;;12.20;7.45;;;;;;;5.77;100.00;99189.31;1780497;79;20968;-72
2022/09/22 02:51:28;;;;;;;11.22;7.10;;;;;;;5.75;100.00;99193.43;1785873;79;21840;-72
2022/09/22 02:54:01;;;;;;;;;;;;;;;5.72;100.00;99198.09;1792583;79;20967;-73
2022/09/22 02:56:33;;;;;;;11.18;7.22;;;;;;;5.69;100.00;99191.88;1757155;79;20115;-72
2022/09/22 02:59:10;;;;;;;9.55;6.53;;;;;;;5.64;100.00;99199.55;1784663;79;20890;-73
2022/09/22 03:01:40;;;;;;;10.82;7.50;;;;;;;5.59;100.00;99204.52;1770260;79;21499;-73
2022/09/22 03:04:10;;;;;;;9.55;7.10;;;;;;;5.59;100.00;99204.52;1787055;79;21077;-73
2022/09/22 03:06:38;;;;;;;10.20;7.25;;;;;;;5.58;100.00;99210.25;1791773;79;20932;-73
2022/09/22 03:09:07;;;;;;;9.80;6.42;;;;;;;5.56;100.00;99206.45;1785168;79;21003;-73
2022/09/22 03:11:36;;;;;;;11.38;7.28;;;;;;;5.56;100.00;99214.63;1768999;79;20999;-71
2022/09/22 03:14:05;;;;;;;17.42;9.18;;;;;;;5.59;100.00;99211.87;1794135;78;20867;-71
2022/09/22 03:16:36;;;;;;;12.63;7.87;;;;;;;5.63;100.00;99217.00;1749057;79;21017;-71
2022/09/22 03:19:09;;;;;;;22.48;10.18;;;;;;;5.63;100.00;99212.36;1733810;80;21495;-71
2022/09/22 03:21:46;;;;;;;18.20;8.90;;;;;;;5.64;100.00;99217.25;1756807;81;20938;-71
2022/09/22 03:24:13;;;;;;;17.80;9.40;;;;;;;5.64;100.00;99215.34;1755533;81;21023;-73
2022/09/22 03:26:45;;;;;;;14.65;7.75;;;;;;;5.64;100.00;99210.45;1754398;80;20975;-72
2022/09/22 03:29:13;;;;;;;12.78;7.45;;;;;;;5.66;100.00;99211.52;1777662;79;21840;-72
2022/09/22 03:31:41;;;;;;;13.53;6.70;;;;;;;5.67;100.00;99203.05;1760941;80;20854;-71
2022/09/22 03:34:08;;;;;;;8.25;6.15;;;;;;;5.69;100.00;99204.12;1783792;79;21087;-69
2022/09/22 03:36:35;;;;;;;12.33;6.45;;;;;;;5.68;100.00;99214.21;1793823;79;21459;-69
2022/09/22 03:39:04;;;;;;;8.53;6.30;;;;;;;5.65;100.00;99218.88;1758629;79;21435;-68
2022/09/22 03:41:39;;;;;;;8.85;6.80;;;;;;;5.65;100.00;99214.80;1794773;79;21094;-75
2022/09/22 03:44:07;;;;;;;11.63;6.47;;;;;;;5.72;100.00;99217.97;1794237;79;20935;-75
2022/09/22 03:46:39;;;;;;;9.85;6.22;;;;;;;5.72;100.00;99221.25;1778017;79;20959;-83
2022/09/22 03:49:09;;;;;;;7.55;5.50;;;;;;;5.69;100.00;99214.47;1787792;79;20987;-84
2022/09/22 03:51:39;;;;;;;20.62;6.40;;;;;;;5.66;100.00;99221.05;1718070;82;21590;-86
2022/09/22 03:54:07;;;;;;;9.95;6.53;;;;;;;5.64;100.00;99219.98;1709597;82;22554;-85
2022/09/22 03:56:41;;;;;;;6.60;5.53;;;;;;;5.64;100.00;99229.52;1698984;82;20983;-74
2022/09/22 03:59:10;;;;;;;8.40;6.10;;;;;;;5.68;100.00;99219.66;1735573;82;20933;-73
2022/09/22 04:01:37;;;;;;;10.80;6.62;;;;;;;5.72;100.00;99215.80;1699841;82;21066;-75
2022/09/22 04:04:04;;;;;;;7.78;5.60;;;;;;;5.73;100.00;99214.14;1768093;79;20927;-73
2022/09/22 04:06:31;;;;;;;9.65;6.28;;;;;;;5.71;100.00;99214.18;1798350;79;21498;-74
2022/09/22 04:08:58;;;;;;;8.63;6.20;;;;;;;5.70;100.00;99219.37;1773023;79;20987;-75
2022/09/22 04:11:24;;;;;;;10.25;6.72;;;;;;;5.71;100.00;99216.91;1785044;79;20959;-75
2022/09/22 04:13:50;;;;;;;8.68;6.12;;;;;;;5.76;100.00;99231.27;1781127;79;21391;-76
2022/09/22 04:16:17;;;;;;;11.55;6.58;;;;;;;5.76;100.00;99230.45;1784665;79;21043;-78
2022/09/22 04:18:44;;;;;;;8.95;6.37;;;;;;;5.77;100.00;99240.25;1789192;79;21139;-76
2022/09/22 04:21:13;;;;;;;9.40;6.80;;;;;;;5.78;100.00;99233.12;1785137;79;20993;-77
2022/09/22 04:23:46;;;;;;;10.95;6.00;;;;;;;5.80;100.00;99243.17;1775926;79;20908;-84
2022/09/22 04:26:17;;;;;;;9.95;6.50;;;;;;;5.85;100.00;99238.21;1791519;79;20938;-70
2022/09/22 04:28:48;;;;;;;9.28;6.40;;;;;;;5.87;100.00;99242.27;1762824;79;21375;-70
2022/09/22 04:31:23;;;;;;;14.80;6.95;;;;;;;5.91;100.00;99239.80;1756176;79;20964;-74
2022/09/22 04:33:54;;;;;;;10.72;7.00;;;;;;;5.96;100.00;99239.19;1763175;79;20940;-73
2022/09/22 04:36:21;;;;;;;11.55;7.05;;;;;;;6.04;100.00;99241.00;1796155;79;20912;-74
2022/09/22 04:38:47;;;;;;;11.28;7.97;;;;;;;6.06;100.00;99236.88;1788833;79;20947;-74
2022/09/22 04:41:14;;;;;;;10.30;6.58;;;;;;;6.05;100.00;99237.17;1781064;79;21466;-74
2022/09/22 04:43:42;;;;;;;14.55;8.50;;;;;;;6.06;100.00;99240.97;1716489;82;21104;-75
2022/09/22 04:46:08;;;;;;;10.88;7.22;;;;;;;6.09;100.00;99239.02;1721043;82;20944;-74
2022/09/22 04:48:35;;;;;;;13.28;8.28;;;;;;;6.14;100.00;99237.58;1725877;82;21052;-74
2022/09/22 04:51:02;;;;;;;15.48;8.00;;;;;;;6.18;100.00;99237.81;1720162;83;20963;-79
2022/09/22 04:53:29;;;;;;;12.85;8.10;;;;;;;6.19;100.00;99244.88;1791467;79;20939;-77
2022/09/22 04:55:56;;;;;;;17.05;7.90;;;;;;;6.21;100.00;99237.22;1712933;82;21212;-77
2022/09/22 04:58:22;;;;;;;12.75;8.20;;;;;;;6.22;100.00;99246.47;1710388;82;21071;-75
2022/09/22 05:00:50;;;;;;;15.28;8.10;;;;;;;6.25;100.00;99255.42;1757255;79;20944;-75
2022/09/22 05:03:17;;;;;;;15.50;7.83;;;;;;;6.25;100.00;99254.61;1799446;79;21486;-78
2022/09/22 05:05:44;;;;;;;13.45;7.55;;;;;;;6.27;100.00;99257.84;1785334;79;21035;-82
2022/09/22 05:08:11;;;;;;;16.93;8.70;;;;;;;6.29;100.00;99252.91;1694953;82;22045;-84
2022/09/22 05:10:38;;;;;;;11.40;7.72;;;;;;;6.32;100.00;99250.96;1743738;81;20979;-78
2022/09/22 05:13:05;;;;;;;19.10;8.03;;;;;;;6.37;100.00;99256.86;1745918;81;20966;-78
2022/09/22 05:15:33;;;;;;;10.72;7.83;;;;;;;6.42;100.00;99251.34;1743388;82;20954;-79
2022/09/22 05:18:00;;;;;;;13.83;8.45;;;;;;;6.46;100.00;99251.81;1743979;81;21611;-80
2022/09/22 05:20:26;;;;;;;18.42;10.08;;;;;;;6.48;100.00;99250.97;1745274;81;21218;-78
2022/09/22 05:22:56;;;;;;;19.07;9.03;;;;;;;6.48;100.00;99258.34;1743214;80;21577;-79
2022/09/22 05:25:23;;;;;;;21.48;9.70;;;;;;;6.52;100.00;99259.37;1745436;81;21568;-84
2022/09/22 05:27:54;;;;;;;20.80;10.63;;;;;;;6.48;100.00;99264.60;1744026;81;20942;-72
2022/09/22 05:30:23;;;;;;;18.85;9.25;;;;;;;6.42;100.00;99254.87;1745760;82;20952;-71
2022/09/22 05:32:50;;;;;;;11.85;8.40;;;;;;;6.39;100.00;99265.01;1743769;82;21078;-72
2022/09/22 05:35:22;;;;;;;21.10;8.90;;;;;;;6.44;100.00;99269.02;1750948;81;20952;-71
2022/09/22 05:37:49;;;;;;;15.20;7.95;;;;;;;6.52;100.00;99270.28;1753187;80;21107;-71
2022/09/22 05:40:17;;;;;;;12.95;7.65;;;;;;;6.59;100.00;99264.70;1758421;81;20950;-70
2022/09/22 05:42:54;;;;;;;15.43;7.85;;;;;;;6.67;100.00;99268.69;1753509;81;20990;-72
2022/09/22 05:45:24;;;;;;;14.85;8.65;;;;;;;6.74;100.00;99264.22;1751668;81;21264;-67
2022/09/22 05:47:58;;;;;;;14.53;6.62;;;;;;;6.81;100.00;99266.83;1746739;81;21058;-76
2022/09/22 05:50:25;;;;;;;12.80;7.33;;;;;;;6.87;100.00;99263.46;1753918;80;20932;-75
2022/09/22 05:53:05;;;;;;;14.53;8.68;;;;;;;6.92;100.00;99263.38;1752734;80;20919;-80
2022/09/22 05:55:34;;;;;;;12.58;8.28;;;;;;;6.97;100.00;99261.89;1762956;80;21010;-79
2022/09/22 05:58:02;;;;;;;11.65;8.25;;;;;;;7.01;100.00;99259.38;1734090;81;21404;-81
2022/09/22 06:00:28;;;;;;;12.78;8.23;;;;;;;7.01;100.00;99258.83;1759817;80;20923;-75
2022/09/22 06:02:55;;;;;;;12.85;8.38;;;;;;;7.06;100.00;99257.93;1756915;81;20919;-73
2022/09/22 06:05:22;;;;;;;11.53;7.67;;;;;;;7.12;100.00;99263.00;1750936;81;20984;-71
2022/09/22 06:08:02;;;;;;;10.63;7.30;;;;;;;7.20;100.00;99265.60;1745241;80;21479;-71
2022/09/22 06:10:33;;;;;;;13.43;8.48;;;;;;;7.27;100.00;99256.47;1755179;80;22076;-72
2022/09/22 06:13:08;;;;;;;12.37;8.38;;;;;;;7.35;100.00;99260.42;1749929;80;21108;-70
2022/09/22 06:15:37;;;;;;;13.43;7.70;;;;;;;7.39;100.00;99257.34;1758715;80;20966;-70
2022/09/22 06:18:07;;;;;;;12.05;7.42;;;;;;;7.41;100.00;99254.56;1753375;81;20932;-73
2022/09/22 06:20:34;;;;;;;10.48;6.72;;;;;;;7.42;100.00;99252.64;1765200;80;20877;-75
2022/09/22 06:23:01;;;;;;;13.28;7.65;;;;;;;7.43;100.00;99253.70;1750397;80;22492;-74
2022/09/22 06:25:28;;;;;;;10.72;7.00;;;;;;;7.46;100.00;99261.30;1745666;80;20888;-75
2022/09/22 06:28:06;;;;;;;11.48;7.42;;;;;;;7.49;100.00;99256.59;1753331;80;21412;-75
2022/09/22 06:30:40;;;;;;;12.45;8.05;;;;;;;7.48;100.00;99252.80;1733454;81;21062;-72
2022/09/22 06:33:10;;;;;;;9.50;6.50;;;;;;;7.51;100.00;99257.08;1738397;80;21055;-74
2022/09/22 06:35:41;;;;;;;9.98;6.70;;;;;;;7.54;100.00;99258.39;1751596;81;22146;-76
2022/09/22 06:38:13;;;;;;;;;;;;;;;7.56;100.00;99257.53;1757545;81;20967;-73
2022/09/22 06:40:45;;;;;;;11.88;8.70;;;;;;;7.56;100.00;99258.34;1748337;80;20105;-73
2022/09/22 06:43:21;;;;;;;10.48;7.12;;;;;;;7.57;100.00;99251.77;1726822;81;21445;-74
2022/09/22 06:45:55;;;;;;;8.85;6.20;;;;;;;7.59;100.00;99260.47;1743860;81;21523;-75
2022/09/22 06:48:30;;;;;;;9.85;6.95;;;;;;;7.59;100.00;99261.03;1744502;81;21893;-79
2022/09/22 06:50:57;;;;;;;10.50;6.12;;;;;;;7.60;100.00;99273.58;1741719;81;20915;-77
2022/09/22 06:53:24;;;;;;;11.25;6.50;;;;;;;7.62;100.00;99272.16;1742857;81;20975;-73
2022/09/22 06:55:57;;;;;;;6.40;5.53;;;;;;;7.60;100.00;99274.94;1731292;81;21100;-74
2022/09/22 06:58:24;;;;;;;10.93;6.55;;;;;;;7.62;100.00;99280.36;1720114;82;20934;-79
2022/09/22 07:00:53;;;;;;;12.75;6.85;;;;;;;7.69;100.00;99279.95;1746484;80;21799;-80
2022/09/22 07:03:25;;;;;;;9.45;6.55;;;;;;;7.74;100.00;99281.78;1765940;79;20976;-74
2022/09/22 07:05:57;;;;;;;7.78;5.45;;;;;;;7.85;100.00;99281.83;1786028;79;21031;-71
2022/09/22 07:08:32;;;;;;;15.85;6.33;;;;;;;7.92;100.00;99284.41;1792976;79;20933;-74
2022/09/22 07:11:06;;;;;;;7.95;6.10;;;;;;;7.99;100.00;99285.93;1778287;79;21486;-71
2022/09/22 07:13:38;;;;;;;7.97;5.87;;;;;;;8.01;100.00;99289.17;1770470;79;21510;-72
2022/09/22 07:16:16;;;;;;;8.05;6.10;;;;;;;8.07;100.00;99292.05;1726620;82;21472;-71
2022/09/22 07:18:47;;;;;;;15.00;6.95;;;;;;;8.13;100.00;99288.88;1688281;82;21452;-71
2022/09/22 07:21:23;;;;;;;6.83;5.42;;;;;;;8.21;100.00;99282.69;1723970;82;21420;-71
2022/09/22 07:23:54;;;;;;;8.93;5.67;;;;;;;8.30;100.00;99282.78;1719502;82;21027;-70
2022/09/22 07:26:29;;;;;;;7.95;5.37;;;;;;;8.37;100.00;99285.94;1681226;83;21534;-69
2022/09/22 07:28:59;;;;;;;10.10;6.15;;;;;;;8.46;100.00;99288.75;1713459;83;21032;-79
2022/09/22 07:31:29;;;;;;;6.85;4.90;;;;;;;8.53;100.00;99278.20;1671980;83;21004;-73
2022/09/22 07:34:04;;;;;;;6.50;4.97;;;;;;;8.63;100.00;99287.55;1733418;82;21523;-76
2022/09/22 07:36:36;;;;;;;7.97;4.97;;;;;;;8.66;100.00;99284.75;1729014;82;21033;-77
2022/09/22 07:39:09;;;;;;;6.25;4.92;;;;;;;8.65;100.00;99282.57;1720291;82;21226;-74
2022/09/22 07:41:42;;;;;;;7.35;4.90;;;;;;;8.66;100.00;99287.48;1782697;79;21097;-73
2022/09/22 07:47:05;;;;;;;7.83;5.40;;;;;;;8.62;100.00;99291.95;1742707;81;21454;-75
2022/09/22 07:49:35;;;;;;;6.45;4.47;;;;;;;8.58;100.00;99281.62;1742263;81;26768;-72
2022/09/22 07:52:11;;;;;;;6.35;4.80;;;;;;;8.64;100.00;99290.53;1720466;81;21026;-73
2022/09/22 07:54:41;;;;;;;8.18;4.75;;;;;;;8.75;100.00;99293.81;1740205;81;20976;-72
2022/09/22 07:57:18;;;;;;;9.08;4.95;;;;;;;8.85;100.00;99286.17;1741777;81;20927;-74
2022/09/22 07:59:51;;;;;;;5.78;4.75;;;;;;;8.94;100.00;99284.86;1743516;81;21544;-76
2022/09/22 08:02:24;;;;;;;6.00;3.87;;;;;;;8.98;100.00;99285.86;1741404;81;21549;-75
2022/09/22 08:05:02;;;;;;;4.80;4.12;;;;;;;8.99;100.00;99285.30;1742069;81;21162;-75
2022/09/22 08:07:31;;;;;;;5.97;4.60;;;;;;;9.05;100.00;99292.27;1705576;80;21006;-83
2022/09/22 08:10:06;;;;;;;6.67;4.40;;;;;;;9.12;100.00;99289.34;1734785;81;20966;-75
2022/09/22 08:12:41;;;;;;;5.25;4.37;;;;;;;9.10;100.00;99277.89;1756287;80;20946;-78
2022/09/22 08:15:12;;;;;;;6.80;3.85;;;;;;;9.06;100.00;99279.64;1745656;81;21041;-82
2022/09/22 08:17:44;;;;;;;8.50;5.05;;;;;;;9.02;100.00;99275.09;1745761;80;21122;-74
2022/09/22 08:20:13;;;;;;;5.30;4.20;;;;;;;9.03;100.00;99279.45;1755426;80;21608;-71
2022/09/22 08:22:42;;;;;;;7.87;4.85;;;;;;;9.05;100.00;99282.13;1749889;81;21012;-70
2022/09/22 08:25:15;;;;;;;5.75;4.70;;;;;;;9.04;100.00;99287.36;1750352;80;20990;-71
2022/09/22 08:27:45;;;;;;;4.50;4.10;;;;;;;9.03;100.00;99280.27;1755065;80;21143;-73
2022/09/22 08:30:23;;;;;;;8.13;3.95;;;;;;;9.08;100.00;99278.77;1738080;80;20978;-75
2022/09/22 08:32:49;;;;;;;6.05;3.83;;;;;;;9.15;100.00;99276.40;1695994;83;21471;-76
2022/09/22 08:35:15;;;;;;;5.65;4.53;;;;;;;9.24;100.00;99270.38;1753411;80;20988;-79
2022/09/22 08:37:48;;;;;;;9.08;3.65;;;;;;;9.34;100.00;99272.05;1715980;80;20940;-73
2022/09/22 08:40:22;;;;;;;4.58;3.75;;;;;;;9.47;100.00;99273.89;1726417;81;20951;-74
2022/09/22 08:42:54;;;;;;;7.42;3.90;;;;;;;9.53;100.00;99280.05;1717249;79;21157;-76
2022/09/22 08:45:33;;;;;;;5.40;3.15;;;;;;;9.58;100.00;99277.17;1760136;79;20963;-87
2022/09/22 08:53:52;;;;;;;6.67;4.80;;;;;;;9.80;100.00;99273.00;1693536;84;21661;-80
2022/09/22 08:56:46;;;;;;;4.85;3.90;;;;;;;9.83;100.00;99271.52;1687830;83;21698;-89
2022/09/22 08:59:21;;;;;;;5.65;4.58;;;;;;;9.82;100.00;99278.94;1688429;83;20885;-83
2022/09/22 09:02:31;;;;;;;6.35;4.50;;;;;;;9.80;100.00;99275.73;1752224;80;21036;-88
2022/09/22 09:05:27;;;;;;;4.67;3.40;;;;;;;9.80;100.00;99278.48;1747091;81;20975;-82
2022/09/22 09:08:16;;;;;;;6.15;3.60;;;;;;;9.91;100.00;99281.15;1744098;81;21511;-75
2022/09/22 09:11:41;;;;;;;3.92;3.45;;;;;;;10.01;100.00;99277.87;1749158;80;21826;-87
2022/09/22 09:14:31;;;;;;;4.33;3.27;;;;;;;10.06;100.00;99285.95;1671974;85;21090;-81
2022/09/22 09:17:14;;;;;;;5.85;4.58;;;;;;;10.17;100.00;99284.53;1735569;82;20991;-78
2022/09/22 09:19:53;;;;;;;5.28;4.03;;;;;;;10.15;100.00;99282.67;1719125;81;20865;-73
2022/09/22 09:22:30;;;;;;;4.97;3.80;;;;;;;10.13;100.00;99282.98;1740873;81;21137;-73
2022/09/22 09:25:09;;;;;;;4.33;3.60;;;;;;;10.19;100.00;99279.53;1719335;81;21186;-75
2022/09/22 09:27:41;;;;;;;4.08;3.50;;;;;;;10.28;100.00;99283.70;1746963;79;21018;-84
2022/09/22 09:30:18;;;;;;;5.00;3.37;;;;;;;10.27;100.00;99282.89;1742563;81;21122;-79
2022/09/22 09:33:00;;;;;;;4.17;3.10;;;;;;;10.32;100.00;99281.38;1749064;81;20946;-86
2022/09/22 09:35:47;;;;;;;5.67;3.33;;;;;;;10.43;100.00;99279.91;1749105;81;21016;-88
2022/09/22 09:38:16;;;;;;;3.98;3.10;;;;;;;10.54;100.00;99282.58;1752064;81;21114;-86
2022/09/22 09:40:53;;;;;;;3.77;2.55;;;;;;;10.59;100.00;99281.62;1746462;80;21066;-86
2022/09/22 09:43:21;;;;;;;3.50;2.58;;;;;;;10.68;100.00;99277.51;1751449;81;20985;-87
2022/09/22 09:46:27;;;;;;;3.25;2.75;;;;;;;10.75;100.00;99280.02;1747699;80;21029;-92
2022/09/22 09:49:17;;;;;;;4.35;2.72;;;;;;;10.87;100.00;99285.67;1758498;79;21565;-84
2022/09/22 09:51:54;;;;;;;4.72;3.00;;;;;;;11.19;100.00;99276.64;1789254;79;21146;-83
2022/09/22 09:54:29;;;;;;;3.35;2.58;;;;;;;11.47;100.00;99271.56;1775271;79;20999;-86
2022/09/22 09:57:12;;;;;;;4.80;2.90;;;;;;;11.62;100.00;99275.69;1798271;79;20964;-79
2022/09/22 10:03:10;;;;;;;2.92;2.62;;;;;;;11.51;100.00;99272.52;1674453;83;21574;-78
2022/09/22 10:05:42;;;;;;;3.42;2.55;;;;;;;11.81;100.00;99265.94;1680648;84;21126;-80
2022/09/22 10:08:23;;;;;;;5.45;2.20;;;;;;;12.34;100.00;99267.81;1695242;84;21036;-80
2022/09/22 10:10:51;;;;;;;;;;;;;;;12.65;100.00;99265.48;1682273;85;22169;-82
2022/09/22 10:13:33;;;;;;;4.17;2.15;;;;;;;12.94;100.00;99267.33;1651447;85;20155;-71
2022/09/22 10:16:24;;;;;;;2.37;2.00;;;;;;;13.24;97.24;99263.91;1673632;85;21578;-75
2022/09/22 10:19:09;;;;;;;3.25;2.42;;;;;;;13.49;99.33;99261.99;1656440;85;21881;-83
2022/09/22 10:21:36;;;;;;;5.75;2.50;;;;;;;13.56;96.95;99265.00;1679393;83;21076;-78
2022/09/22 10:24:30;;;;;;;5.42;2.25;;;;;;;13.41;95.24;99264.27;1689877;84;20952;-81
2022/09/22 10:27:01;;;;;;;4.03;1.75;;;;;;;13.21;93.51;99274.23;1692235;84;21521;-83
2022/09/22 10:29:34;;;;;;;2.87;1.77;;;;;;;12.92;91.50;99274.31;1729352;82;20945;-82
2022/09/22 10:32:16;;;;;;;1.45;1.35;;;;;;;12.74;93.95;99272.27;1729329;82;21574;-79
2022/09/22 10:34:58;;;;;;;1.55;1.32;;;;;;;12.71;94.24;99271.60;1750275;81;21550;-83
2022/09/22 10:37:29;;;;;;;1.52;1.32;;;;;;;12.62;93.42;99273.05;1735796;80;20943;-83
2022/09/22 10:40:02;;;;;;;1.60;1.40;;;;;;;12.45;93.24;99273.16;1755410;80;20932;-81
2022/09/22 10:42:37;;;;;;;2.90;1.57;;;;;;;12.34;93.89;99268.63;1730480;81;21030;-74
2022/09/22 10:45:12;;;;;;;2.27;1.57;;;;;;;12.31;96.26;99274.80;1761628;80;21117;-77
2022/09/22 10:47:59;;;;;;;4.22;2.33;;;;;;;12.39;98.20;99266.24;1783631;79;20951;-76
2022/09/22 10:50:58;;;;;;;3.50;1.42;;;;;;;12.44;96.31;99265.48;1779432;79;20887;-77
2022/09/22 10:53:34;;;;;;;2.42;1.40;;;;;;;12.51;96.57;99267.70;1750401;79;21502;-76
2022/09/22 10:56:12;;;;;;;4.00;1.50;;;;;;;12.53;96.77;99264.84;1754697;80;21093;-77
2022/09/22 10:59:19;;;;;;;3.87;1.67;;;;;;;12.62;97.51;99268.11;1761442;79;20860;-77
2022/09/22 11:01:58;;;;;;;2.80;1.90;;;;;;;12.64;96.67;99270.77;1779709;79;38325;-76
2022/09/22 11:04:39;;;;;;;2.20;1.77;;;;;;;12.56;94.12;99267.50;1706945;82;21031;-74
2022/09/22 11:13:47;;;;;;;5.15;2.50;;;;;;;12.10;94.88;99267.09;1731411;82;21265;-75
2022/09/22 11:16:46;;;;;;;3.62;2.70;;;;;;;11.99;94.83;99262.55;1698565;83;20858;-75
2022/09/22 11:19:32;;;;;;;4.10;2.85;;;;;;;11.87;95.38;99258.31;1676060;85;22372;-76
2022/09/22 11:22:19;;;;;;;3.80;2.50;;;;;;;11.82;96.69;99263.43;1679081;84;20952;-88
2022/09/22 11:25:15;;;;;;;4.35;2.58;;;;;;;11.85;98.69;99253.71;1667317;85;21468;-73
2022/09/22 11:28:03;;;;;;;2.98;2.50;;;;;;;11.98;98.78;99254.63;1687572;84;22184;-75
2022/09/22 11:30:50;;;;;;;3.12;1.90;;;;;;;12.07;95.65;99259.50;1714495;82;21548;-75
2022/09/22 11:33:59;;;;;;;3.08;1.70;;;;;;;11.97;94.63;99258.51;1718929;82;21100;-80
2022/09/22 11:36:40;;;;;;;2.70;1.77;;;;;;;11.90;94.78;99259.03;1702207;82;21045;-75
2022/09/22 11:39:16;;;;;;;3.90;1.77;;;;;;;11.80;94.75;99264.89;1758178;80;20931;-78
2022/09/22 11:42:28;;;;;;;5.58;2.22;;;;;;;11.70;95.06;99261.11;1743176;80;21087;-76
2022/09/22 11:45:46;;;;;;;2.35;1.60;;;;;;;11.62;96.71;99260.57;1741743;80;21478;-78
2022/09/22 11:48:57;;;;;;;3.05;1.50;;;;;;;11.54;97.29;99253.43;1747912;80;20953;-80
2022/09/22 11:51:46;;;;;;;2.98;1.80;;;;;;;11.54;98.49;99255.38;1754434;80;21455;-82
2022/09/22 11:54:59;;;;;;;2.30;1.50;;;;;;;11.52;98.99;99246.08;1715603;81;21433;-87
2022/09/22 11:57:28;;;;;;;4.30;1.47;;;;;;;11.56;98.58;99252.50;1697808;83;20926;-77
2022/09/22 12:00:19;;;;;;;5.25;1.62;;;;;;;11.62;99.61;99250.38;1693966;82;21079;-82
2022/09/22 12:03:11;;;;;;;2.60;1.95;;;;;;;11.71;99.25;99250.34;1676142;83;20946;-87
2022/09/22 12:05:46;;;;;;;1.50;1.20;;;;;;;11.83;99.62;99246.36;1686830;83;21018;-79
2022/09/22 12:08:19;;;;;;;3.52;1.30;;;;;;;11.87;98.29;99253.62;1734800;81;20893;-78
2022/09/22 12:10:50;;;;;;;3.47;1.67;;;;;;;11.87;96.69;99245.94;1728958;81;20989;-86
2022/09/22 12:13:30;;;;;;;1.67;1.32;;;;;;;11.87;97.29;99245.94;1727884;81;21034;-75
2022/09/22 12:16:30;;;;;;;2.35;1.40;;;;;;;11.92;97.95;99243.56;1731836;81;21115;-76
2022/09/22 12:19:44;;;;;;;3.27;1.60;;;;;;;11.95;98.57;99249.78;1715939;82;20971;-73
2022/09/22 12:22:48;;;;;;;2.12;1.40;;;;;;;11.93;98.31;99250.68;1712939;82;20936;-74
2022/09/22 12:25:44;;;;;;;2.05;1.42;;;;;;;11.84;95.70;99247.41;1715501;81;21199;-75
2022/09/22 12:28:18;;;;;;;2.52;1.30;;;;;;;11.73;95.66;99253.00;1686063;82;21586;-74
2022/09/22 12:31:11;;;;;;;1.87;1.47;;;;;;;11.53;96.65;99248.27;1649529;85;21462;-75